createdAt,value
2017-12-04T00:01:51.841Z,1.50
2017-12-04T00:04:19.812Z,1.60
2017-12-04T00:06:47.678Z,1.70
2017-12-04T00:09:15.549Z,1.70
2017-12-04T00:11:43.412Z,1.60
2017-12-04T00:14:11.280Z,1.50
2017-12-04T00:16:39.147Z,1.50
2017-12-04T00:19:06.941Z,1.50
2017-12-04T00:21:34.882Z,1.50
2017-12-04T00:24:02.750Z,1.50
2017-12-04T00:26:30.616Z,1.60
2017-12-04T00:28:58.483Z,1.60
2017-12-04T00:31:26.351Z,1.60
2017-12-04T00:33:54.219Z,1.60
2017-12-04T00:36:22.085Z,1.60
2017-12-04T00:38:49.888Z,1.70
2017-12-04T00:41:18.537Z,1.60
2017-12-04T00:43:46.404Z,1.60
2017-12-04T00:46:14.272Z,1.60
2017-12-04T00:48:42.139Z,1.60
2017-12-04T00:51:10.007Z,1.60
2017-12-04T00:53:37.877Z,1.60
2017-12-04T00:56:05.741Z,1.70
2017-12-04T00:58:33.609Z,1.70
2017-12-04T01:01:01.476Z,1.60
2017-12-04T01:03:29.269Z,1.70
2017-12-04T01:05:57.107Z,1.70
2017-12-04T01:08:24.974Z,1.70
2017-12-04T01:10:52.842Z,1.70
2017-12-04T01:13:20.710Z,1.70
2017-12-04T01:15:48.577Z,1.70
2017-12-04T01:18:16.445Z,1.70
2017-12-04T01:20:44.311Z,1.70
2017-12-04T01:23:12.179Z,1.70
2017-12-04T01:28:14.059Z,1.80
2017-12-04T01:30:41.925Z,1.70
2017-12-04T01:33:09.792Z,1.80
2017-12-04T01:35:37.660Z,1.80
2017-12-04T01:38:05.527Z,1.70
2017-12-04T01:40:33.396Z,1.70
2017-12-04T01:43:01.261Z,1.80
2017-12-04T01:45:29.179Z,1.80
2017-12-04T01:47:57.815Z,1.80
2017-12-04T01:50:25.609Z,1.80
2017-12-04T01:52:53.550Z,1.90
2017-12-04T01:55:21.417Z,1.80
2017-12-04T01:57:49.284Z,1.90
2017-12-04T02:00:17.152Z,2.00
2017-12-04T02:02:45.019Z,2.00
2017-12-04T02:05:12.886Z,2.00
2017-12-04T02:07:40.754Z,1.90
2017-12-04T02:10:08.623Z,1.80
2017-12-04T02:12:36.488Z,1.80
2017-12-04T02:15:04.356Z,1.90
2017-12-04T02:17:32.224Z,1.80
2017-12-04T02:20:00.091Z,1.80
2017-12-04T02:22:28.060Z,1.80
2017-12-04T02:24:55.927Z,1.80
2017-12-04T02:27:23.794Z,1.80
2017-12-04T02:29:51.763Z,1.80
2017-12-04T02:32:19.633Z,1.90
2017-12-04T02:34:47.500Z,1.90
2017-12-04T02:37:15.366Z,1.70
2017-12-04T02:39:43.233Z,1.80
2017-12-04T02:42:11.100Z,1.80
2017-12-04T02:44:38.968Z,1.80
2017-12-04T02:47:06.836Z,1.80
2017-12-04T02:49:34.702Z,1.90
2017-12-04T02:52:02.572Z,1.80
2017-12-04T02:54:30.540Z,1.90
2017-12-04T02:56:58.510Z,1.90
2017-12-04T02:59:26.379Z,1.90
2017-12-04T03:01:54.248Z,1.80
2017-12-04T03:04:22.111Z,1.80
2017-12-04T03:06:49.978Z,1.80
2017-12-04T03:11:51.857Z,1.90
2017-12-04T03:14:19.724Z,1.90
2017-12-04T03:16:47.592Z,1.90
2017-12-04T03:19:15.460Z,1.90
2017-12-04T03:21:43.327Z,1.90
2017-12-04T03:24:11.194Z,1.90
2017-12-04T03:26:39.061Z,1.80
2017-12-04T03:29:06.929Z,1.80
2017-12-04T03:31:34.795Z,1.80
2017-12-04T03:34:02.663Z,1.80
2017-12-04T03:36:30.529Z,1.90
2017-12-04T03:38:58.397Z,1.80
2017-12-04T03:41:26.264Z,1.80
2017-12-04T03:43:54.057Z,1.80
2017-12-04T03:46:21.999Z,1.90
2017-12-04T03:48:49.867Z,1.90
2017-12-04T03:51:17.734Z,1.90
2017-12-04T03:53:45.601Z,1.90
2017-12-04T03:56:14.389Z,1.90
2017-12-04T03:58:42.266Z,1.80
2017-12-04T04:01:10.944Z,1.80
2017-12-04T04:03:38.812Z,1.80
2017-12-04T04:06:06.679Z,1.90
2017-12-04T04:08:34.547Z,1.90
2017-12-04T04:11:02.413Z,2.00
2017-12-04T04:13:30.281Z,1.90
2017-12-04T04:15:58.148Z,1.90
2017-12-04T04:18:26.016Z,2.00
2017-12-04T04:20:53.882Z,1.90
2017-12-04T04:23:21.752Z,2.00
2017-12-04T04:25:49.617Z,1.90
2017-12-04T04:28:17.485Z,1.80
2017-12-04T04:30:45.352Z,1.80
2017-12-04T04:33:13.219Z,1.90
2017-12-04T04:35:41.196Z,2.00
2017-12-04T04:38:09.056Z,2.00
2017-12-04T04:40:36.960Z,2.00
2017-12-04T04:43:05.610Z,1.90
2017-12-04T04:45:33.477Z,1.90
2017-12-04T04:48:01.345Z,1.90
2017-12-04T04:50:29.214Z,1.80
2017-12-04T04:52:57.181Z,1.90
2017-12-04T04:55:25.049Z,1.70
2017-12-04T04:57:52.916Z,1.70
2017-12-04T05:00:20.783Z,1.80
2017-12-04T05:02:48.650Z,1.90
2017-12-04T05:05:16.518Z,1.90
2017-12-04T05:07:44.385Z,1.90
2017-12-04T05:10:12.226Z,2.00
2017-12-04T05:12:40.120Z,2.00
2017-12-04T05:15:08.089Z,2.00
2017-12-04T05:17:36.098Z,2.10
2017-12-04T05:20:04.848Z,2.10
2017-12-04T05:22:33.023Z,2.10
2017-12-04T05:25:00.890Z,2.10
2017-12-04T05:27:28.758Z,2.10
2017-12-04T05:29:56.625Z,2.10
2017-12-04T05:32:24.492Z,2.00
2017-12-04T05:34:52.359Z,2.00
2017-12-04T05:37:20.227Z,2.00
2017-12-04T05:39:48.094Z,2.00
2017-12-04T05:42:15.961Z,2.00
2017-12-04T05:44:43.832Z,2.00
2017-12-04T05:47:11.695Z,2.00
2017-12-04T05:49:39.563Z,2.10
2017-12-04T05:52:07.430Z,2.20
2017-12-04T05:54:35.297Z,2.20
2017-12-04T05:57:03.165Z,2.20
2017-12-04T05:59:31.032Z,2.20
2017-12-04T06:01:58.899Z,2.30
2017-12-04T06:04:26.774Z,2.30
2017-12-04T06:06:54.633Z,2.40
2017-12-04T06:09:22.504Z,2.50
2017-12-04T06:11:50.368Z,2.50
2017-12-04T06:14:18.242Z,2.50
2017-12-04T06:16:46.103Z,2.50
2017-12-04T06:19:13.966Z,2.50
2017-12-04T06:21:41.838Z,2.40
2017-12-04T06:24:09.708Z,2.40
2017-12-04T06:26:37.573Z,2.50
2017-12-04T06:29:05.442Z,2.50
2017-12-04T06:31:33.308Z,2.50
2017-12-04T06:34:01.175Z,2.50
2017-12-04T06:36:29.042Z,2.50
2017-12-04T06:38:56.955Z,2.40
2017-12-04T06:41:25.596Z,2.20
2017-12-04T06:43:53.462Z,2.20
2017-12-04T06:46:21.329Z,2.20
2017-12-04T06:48:49.197Z,2.20
2017-12-04T06:51:17.065Z,2.10
2017-12-04T06:53:44.932Z,2.10
2017-12-04T06:56:12.799Z,2.20
2017-12-04T06:58:40.666Z,2.10
2017-12-04T07:01:08.534Z,2.10
2017-12-04T07:03:36.400Z,2.20
2017-12-04T07:06:04.268Z,2.20
2017-12-04T07:08:32.135Z,2.20
2017-12-04T07:11:00.004Z,2.10
2017-12-04T07:13:27.870Z,2.20
2017-12-04T07:15:55.731Z,2.20
2017-12-04T07:18:23.604Z,2.10
2017-12-04T07:20:51.471Z,2.10
2017-12-04T07:23:19.338Z,2.10
2017-12-04T07:25:47.206Z,2.10
2017-12-04T07:28:15.073Z,2.10
2017-12-04T07:30:42.941Z,2.10
2017-12-04T07:33:10.812Z,2.10
2017-12-04T07:35:38.675Z,2.10
2017-12-04T07:38:06.474Z,2.20
2017-12-04T07:40:35.126Z,2.00
2017-12-04T07:43:02.994Z,2.00
2017-12-04T07:45:30.861Z,2.00
2017-12-04T07:47:58.728Z,2.00
2017-12-04T07:50:26.594Z,2.00
2017-12-04T07:52:54.462Z,2.00
2017-12-04T07:55:22.329Z,2.10
2017-12-04T07:57:50.197Z,2.10
2017-12-04T08:00:18.065Z,2.10
2017-12-04T08:02:45.933Z,2.10
2017-12-04T08:05:13.799Z,2.20
2017-12-04T08:07:41.670Z,2.20
2017-12-04T08:10:09.534Z,2.20
2017-12-04T08:12:37.401Z,2.30
2017-12-04T08:15:05.271Z,2.30
2017-12-04T08:17:33.135Z,2.40
2017-12-04T08:20:01.003Z,2.40
2017-12-04T08:22:28.768Z,2.40
2017-12-04T08:24:56.635Z,2.40
2017-12-04T08:27:24.502Z,2.40
2017-12-04T08:29:52.373Z,2.40
2017-12-04T08:32:20.249Z,2.40
2017-12-04T08:34:48.104Z,2.50
2017-12-04T08:37:15.970Z,2.40
2017-12-04T08:39:43.836Z,2.50
2017-12-04T08:42:11.706Z,2.50
2017-12-04T08:44:39.572Z,2.40
2017-12-04T08:47:07.440Z,2.40
2017-12-04T08:49:35.310Z,2.40
2017-12-04T08:52:03.175Z,2.40
2017-12-04T08:54:31.042Z,2.40
2017-12-04T08:56:58.908Z,2.40
2017-12-04T08:59:26.775Z,2.40
2017-12-04T09:01:54.642Z,2.40
2017-12-04T09:04:22.510Z,2.30
2017-12-04T09:06:50.275Z,2.30
2017-12-04T09:09:18.142Z,2.40
2017-12-04T09:11:46.009Z,2.40
2017-12-04T09:14:13.879Z,2.40
2017-12-04T09:16:41.744Z,2.50
2017-12-04T09:19:09.611Z,2.50
2017-12-04T09:21:37.478Z,2.50
2017-12-04T09:24:05.346Z,2.50
2017-12-04T09:26:33.317Z,2.50
2017-12-04T09:29:01.285Z,2.50
2017-12-04T09:31:29.254Z,2.50
2017-12-04T09:33:57.121Z,2.60
2017-12-04T09:36:24.989Z,2.60
2017-12-04T09:38:52.855Z,2.60
2017-12-04T09:41:20.722Z,2.60
2017-12-04T09:43:48.591Z,2.70
2017-12-04T09:46:16.458Z,2.70
2017-12-04T09:48:44.325Z,2.70
2017-12-04T09:51:12.192Z,2.70
2017-12-04T09:53:40.060Z,2.80
2017-12-04T09:56:07.927Z,2.70
2017-12-04T09:58:35.794Z,2.70
2017-12-04T10:01:03.660Z,2.70
2017-12-04T10:03:31.529Z,2.70
2017-12-04T10:05:59.326Z,2.70
2017-12-04T10:08:27.980Z,2.80
2017-12-04T10:10:55.848Z,2.70
2017-12-04T10:13:23.714Z,2.70
2017-12-04T10:15:51.582Z,2.80
2017-12-04T10:18:19.450Z,2.80
2017-12-04T10:20:47.316Z,2.70
2017-12-04T10:23:15.183Z,2.80
2017-12-04T10:25:43.051Z,2.80
2017-12-04T10:28:10.918Z,2.80
2017-12-04T10:30:38.787Z,2.80
2017-12-04T10:33:06.651Z,2.80
2017-12-04T10:35:34.519Z,2.80
2017-12-04T10:38:02.381Z,2.80
2017-12-04T10:40:30.254Z,2.80
2017-12-04T10:42:58.121Z,2.90
2017-12-04T10:45:25.988Z,2.90
2017-12-04T10:47:53.855Z,2.90
2017-12-04T10:50:21.723Z,2.90
2017-12-04T10:52:49.591Z,2.90
2017-12-04T10:55:17.457Z,3.00
2017-12-04T10:57:45.325Z,3.10
2017-12-04T11:00:13.295Z,3.10
2017-12-04T11:02:41.264Z,3.10
2017-12-04T11:05:09.131Z,3.20
2017-12-04T11:07:36.998Z,3.20
2017-12-04T11:10:04.866Z,3.20
2017-12-04T11:12:32.733Z,3.20
2017-12-04T11:15:00.606Z,3.10
2017-12-04T11:17:29.287Z,3.20
2017-12-04T11:19:57.153Z,3.20
2017-12-04T11:22:25.022Z,3.20
2017-12-04T11:24:52.887Z,3.20
2017-12-04T11:27:20.755Z,3.10
2017-12-04T11:29:48.621Z,3.10
2017-12-04T11:32:16.489Z,3.10
2017-12-04T11:34:44.357Z,3.00
2017-12-04T11:37:12.224Z,3.10
2017-12-04T11:39:40.092Z,3.00
2017-12-04T11:42:07.959Z,3.00
2017-12-04T11:44:35.762Z,3.00
2017-12-04T11:47:04.410Z,3.10
2017-12-04T11:49:32.277Z,3.10
2017-12-04T11:52:00.144Z,3.20
2017-12-04T11:54:27.942Z,3.10
2017-12-04T11:56:56.595Z,3.00
2017-12-04T11:59:24.462Z,3.00
2017-12-04T12:01:52.331Z,3.10
2017-12-04T12:04:20.197Z,3.10
2017-12-04T12:06:48.064Z,3.20
2017-12-04T12:09:15.931Z,3.20
2017-12-04T12:11:43.799Z,3.20
2017-12-04T12:14:11.674Z,3.10
2017-12-04T12:16:39.533Z,3.10
2017-12-04T12:19:07.400Z,3.10
2017-12-04T12:21:35.122Z,3.10
2017-12-04T12:24:02.930Z,3.20
2017-12-04T12:26:30.798Z,3.10
2017-12-04T12:28:58.530Z,3.10
2017-12-04T12:31:26.237Z,3.10
2017-12-04T12:33:53.953Z,3.10
2017-12-04T12:36:21.670Z,3.00
2017-12-04T12:38:49.386Z,3.10
2017-12-04T12:41:17.093Z,3.00
2017-12-04T12:43:44.809Z,3.00
2017-12-04T12:46:12.714Z,3.10
2017-12-04T12:48:40.578Z,3.10
2017-12-04T12:51:08.448Z,3.00
2017-12-04T12:53:36.315Z,3.10
2017-12-04T12:56:04.182Z,3.00
2017-12-04T12:58:32.048Z,3.00
2017-12-04T13:00:59.813Z,3.00
2017-12-04T13:03:27.686Z,3.00
2017-12-04T13:05:55.547Z,3.00
2017-12-04T13:08:23.414Z,3.10
2017-12-04T13:10:51.282Z,3.20
2017-12-04T13:13:19.156Z,3.20
2017-12-04T13:15:47.017Z,3.10
2017-12-04T13:18:14.884Z,3.10
2017-12-04T13:20:42.750Z,3.20
2017-12-04T13:23:10.619Z,3.20
2017-12-04T13:25:38.485Z,3.30
2017-12-04T13:28:06.282Z,3.40
2017-12-04T13:30:34.123Z,3.50
2017-12-04T13:33:13.966Z,3.60
2017-12-04T13:35:53.610Z,3.70
2017-12-04T13:38:21.480Z,3.70
2017-12-04T13:40:49.344Z,3.70
2017-12-04T13:43:17.210Z,3.80
2017-12-04T13:45:45.078Z,3.80
2017-12-04T13:48:12.949Z,3.90
2017-12-04T13:50:40.813Z,3.90
2017-12-04T13:53:08.680Z,3.90
2017-12-04T13:55:36.446Z,4.00
2017-12-04T13:58:04.311Z,4.10
2017-12-04T14:00:32.179Z,4.10
2017-12-04T14:03:00.046Z,4.10
2017-12-04T14:05:27.913Z,4.00
2017-12-04T14:07:55.781Z,4.00
2017-12-04T14:10:23.648Z,4.00
2017-12-04T14:12:51.515Z,4.00
2017-12-04T14:15:19.376Z,4.00
2017-12-04T14:17:47.256Z,4.00
2017-12-04T14:20:15.116Z,4.00
2017-12-04T14:22:42.988Z,4.10
2017-12-04T14:25:10.852Z,4.10
2017-12-04T14:27:38.718Z,4.10
2017-12-04T14:30:06.586Z,4.10
2017-12-04T14:32:34.453Z,4.10
2017-12-04T14:35:02.321Z,4.20
2017-12-04T14:37:30.187Z,4.20
2017-12-04T14:39:58.055Z,4.20
2017-12-04T14:42:25.924Z,4.30
2017-12-04T14:44:53.790Z,4.30
2017-12-04T14:47:21.656Z,4.30
2017-12-04T14:49:49.524Z,4.40
2017-12-04T14:52:17.391Z,4.40
2017-12-04T14:54:45.258Z,4.40
2017-12-04T14:57:13.126Z,4.50
2017-12-04T14:59:40.992Z,4.50
2017-12-04T15:02:08.860Z,4.60
2017-12-04T15:04:36.829Z,4.50
2017-12-04T15:07:04.697Z,4.60
2017-12-04T15:09:32.564Z,4.60
2017-12-04T15:12:00.431Z,4.70
2017-12-04T15:14:28.299Z,4.70
2017-12-04T15:16:56.166Z,4.70
2017-12-04T15:19:24.033Z,4.70
2017-12-04T15:21:51.900Z,4.70
2017-12-04T15:24:19.768Z,4.70
2017-12-04T15:26:47.637Z,4.60
2017-12-04T15:29:15.502Z,4.60
2017-12-04T15:31:43.370Z,4.60
2017-12-04T15:34:11.237Z,4.60
2017-12-04T15:36:39.104Z,4.60
2017-12-04T15:39:07.074Z,4.60
2017-12-04T15:41:34.941Z,4.70
2017-12-04T15:44:02.808Z,4.70
2017-12-04T15:46:30.675Z,4.80
2017-12-04T15:48:58.542Z,4.80
2017-12-04T15:51:26.410Z,4.80
2017-12-04T15:53:54.284Z,4.80
2017-12-04T15:56:22.145Z,4.90
2017-12-04T15:58:50.114Z,4.90
2017-12-04T16:01:17.982Z,4.90
2017-12-04T16:03:45.849Z,4.90
2017-12-04T16:06:13.715Z,5.00
2017-12-04T16:08:41.583Z,5.00
2017-12-04T16:11:09.452Z,5.00
2017-12-04T16:13:37.318Z,5.10
2017-12-04T16:16:05.184Z,5.10
2017-12-04T16:18:33.052Z,5.00
2017-12-04T16:21:00.920Z,5.00
2017-12-04T16:23:28.783Z,4.90
2017-12-04T16:25:56.654Z,4.90
2017-12-04T16:28:24.521Z,5.00
2017-12-04T16:30:52.388Z,5.00
2017-12-04T16:33:20.359Z,5.10
2017-12-04T16:35:48.229Z,5.00
2017-12-04T16:38:16.094Z,5.00
2017-12-04T16:40:43.960Z,4.90
2017-12-04T16:43:11.828Z,4.80
2017-12-04T16:45:39.695Z,4.70
2017-12-04T16:48:07.562Z,4.70
2017-12-04T16:50:35.429Z,4.80
2017-12-04T16:53:03.296Z,4.70
2017-12-04T16:55:31.163Z,4.70
2017-12-04T16:57:59.134Z,4.70
2017-12-04T17:00:27.000Z,4.60
2017-12-04T17:02:54.868Z,4.60
2017-12-04T17:05:22.737Z,4.60
2017-12-04T17:07:50.602Z,4.60
2017-12-04T17:10:18.469Z,4.60
2017-12-04T17:12:46.340Z,4.50
2017-12-04T17:15:17.106Z,4.40
2017-12-04T17:17:45.860Z,4.40
2017-12-04T17:20:15.492Z,4.40
2017-12-04T17:22:43.438Z,4.40
2017-12-04T17:25:11.306Z,4.40
2017-12-04T17:27:39.173Z,4.40
2017-12-04T17:30:06.990Z,4.40
2017-12-04T17:32:34.907Z,4.50
2017-12-04T17:35:02.879Z,4.50
2017-12-04T17:37:30.951Z,4.50
2017-12-04T17:40:01.386Z,4.50
2017-12-04T17:42:29.482Z,4.50
2017-12-04T17:44:58.134Z,4.60
2017-12-04T17:47:26.003Z,4.60
2017-12-04T17:49:53.871Z,4.60
2017-12-04T17:52:21.840Z,4.60
2017-12-04T17:54:49.709Z,4.60
2017-12-04T17:57:17.575Z,4.60
2017-12-04T17:59:45.545Z,4.60
2017-12-04T18:02:13.412Z,4.60
2017-12-04T18:04:41.279Z,4.60
2017-12-04T18:07:09.146Z,4.50
2017-12-04T18:09:37.013Z,4.50
2017-12-04T18:12:04.983Z,4.50
2017-12-04T18:14:33.060Z,4.50
2017-12-04T18:17:01.025Z,4.50
2017-12-04T18:19:28.892Z,4.50
2017-12-04T18:21:56.759Z,4.40
2017-12-04T18:24:24.627Z,4.40
2017-12-04T18:26:52.494Z,4.50
2017-12-04T18:29:20.362Z,4.50
2017-12-04T18:31:48.229Z,4.50
2017-12-04T18:34:16.199Z,4.50
2017-12-04T18:36:44.066Z,4.60
2017-12-04T18:39:12.038Z,4.70
2017-12-04T18:41:39.903Z,4.70
2017-12-04T18:44:07.771Z,4.70
2017-12-04T18:46:35.645Z,4.60
2017-12-04T18:49:03.606Z,4.60
2017-12-04T18:51:31.586Z,4.70
2017-12-04T18:53:59.546Z,4.60
2017-12-04T18:56:28.335Z,4.30
2017-12-04T18:58:56.202Z,4.30
2017-12-04T19:01:24.102Z,4.30
2017-12-04T19:03:52.859Z,4.30
2017-12-04T19:06:20.728Z,4.30
2017-12-04T19:08:48.594Z,4.30
2017-12-04T19:11:16.462Z,4.30
2017-12-04T19:13:44.334Z,4.30
2017-12-04T19:16:12.297Z,4.30
2017-12-04T19:18:41.192Z,4.30
2017-12-04T19:21:09.671Z,4.30
2017-12-04T19:23:37.647Z,4.20
2017-12-04T19:26:05.509Z,4.30
2017-12-04T19:28:33.477Z,4.30
2017-12-04T19:31:01.345Z,4.30
2017-12-04T19:33:29.212Z,4.30
2017-12-04T19:35:57.079Z,4.30
2017-12-04T19:38:24.947Z,4.30
2017-12-04T19:40:52.918Z,4.30
2017-12-04T19:43:20.784Z,4.30
2017-12-04T19:45:48.754Z,4.30
2017-12-04T19:48:16.621Z,4.40
2017-12-04T19:50:44.593Z,4.40
2017-12-04T19:53:13.101Z,4.50
2017-12-04T19:55:41.145Z,4.60
2017-12-04T19:58:09.114Z,4.60
2017-12-04T20:00:37.105Z,4.70
2017-12-04T20:03:05.907Z,4.80
2017-12-04T20:05:34.560Z,4.90
2017-12-04T20:08:02.427Z,4.90
2017-12-04T20:10:30.295Z,4.90
2017-12-04T20:12:58.264Z,5.00
2017-12-04T20:15:26.131Z,5.00
2017-12-04T20:17:53.997Z,5.10
2017-12-04T20:20:21.895Z,5.10
2017-12-04T20:22:50.553Z,5.20
2017-12-04T20:25:18.522Z,5.20
2017-12-04T20:27:46.389Z,5.20
2017-12-04T20:30:14.256Z,5.30
2017-12-04T20:32:42.123Z,5.20
2017-12-04T20:35:09.991Z,5.20
2017-12-04T20:37:38.063Z,5.20
2017-12-04T20:40:05.930Z,5.20
2017-12-04T20:42:33.798Z,5.30
2017-12-04T20:45:01.664Z,5.30
2017-12-04T20:47:29.533Z,5.30
2017-12-04T20:49:57.400Z,5.30
2017-12-04T20:52:25.267Z,5.30
2017-12-04T20:54:53.137Z,5.40
2017-12-04T20:57:21.005Z,5.40
2017-12-04T20:59:48.868Z,5.40
2017-12-04T21:02:16.737Z,5.40
2017-12-04T21:04:44.604Z,5.40
2017-12-04T21:07:12.471Z,5.30
2017-12-04T21:09:52.319Z,5.30
2017-12-04T21:12:20.163Z,5.30
2017-12-04T21:14:59.830Z,5.40
2017-12-04T21:17:33.534Z,5.40
2017-12-04T21:20:01.402Z,5.40
2017-12-04T21:22:29.264Z,5.40
2017-12-04T21:24:57.136Z,5.40
2017-12-04T21:27:25.112Z,5.40
2017-12-04T21:29:52.975Z,5.40
2017-12-04T21:32:20.843Z,5.40
2017-12-04T21:34:48.714Z,5.40
2017-12-04T21:37:16.677Z,5.40
2017-12-04T21:39:44.652Z,5.50
2017-12-04T21:42:12.514Z,5.40
2017-12-04T21:44:40.381Z,5.50
2017-12-04T21:47:08.253Z,5.50
2017-12-04T21:49:36.140Z,5.50
2017-12-04T21:52:04.908Z,5.60
2017-12-04T21:54:32.774Z,5.50
2017-12-04T21:57:00.642Z,5.50
2017-12-04T21:59:28.508Z,5.60
2017-12-04T22:01:56.375Z,5.60
2017-12-04T22:04:24.242Z,5.50
2017-12-04T22:06:52.212Z,5.50
2017-12-04T22:09:20.079Z,5.50
2017-12-04T22:11:47.946Z,5.50
2017-12-04T22:14:15.814Z,5.50
2017-12-04T22:16:43.680Z,5.50
2017-12-04T22:19:11.548Z,5.50
2017-12-04T22:21:39.519Z,5.40
2017-12-04T22:24:07.384Z,5.40
2017-12-04T22:26:35.252Z,5.50
2017-12-04T22:29:03.120Z,5.50
2017-12-04T22:31:30.986Z,5.50
2017-12-04T22:33:58.854Z,5.50
2017-12-04T22:36:26.721Z,5.50
2017-12-04T22:38:54.589Z,5.50
2017-12-04T22:41:22.455Z,5.60
2017-12-04T22:43:50.324Z,5.60
2017-12-04T22:46:18.293Z,5.70
2017-12-04T22:48:46.160Z,5.70
2017-12-04T22:51:14.028Z,5.80
2017-12-04T22:53:41.895Z,5.80
2017-12-04T22:56:09.763Z,5.80
2017-12-04T22:58:37.630Z,5.80
2017-12-04T23:01:05.430Z,5.80
2017-12-04T23:03:34.081Z,5.80
2017-12-04T23:06:02.003Z,5.80
2017-12-04T23:08:30.634Z,5.50
2017-12-04T23:10:58.605Z,5.50
2017-12-04T23:13:26.471Z,5.40
2017-12-04T23:15:54.269Z,5.40
2017-12-04T23:18:22.139Z,5.30
2017-12-04T23:20:50.790Z,5.20
2017-12-04T23:23:18.776Z,5.20
2017-12-04T23:25:46.627Z,5.20
2017-12-04T23:28:14.805Z,5.30
2017-12-04T23:30:42.669Z,5.40
2017-12-04T23:33:10.536Z,5.50
2017-12-04T23:35:38.333Z,5.50
2017-12-04T23:38:06.270Z,5.50
2017-12-04T23:40:34.138Z,5.40
2017-12-04T23:43:02.005Z,5.40
2017-12-04T23:45:29.874Z,5.40
2017-12-04T23:47:57.741Z,5.40
2017-12-04T23:50:25.608Z,5.40
2017-12-04T23:52:53.475Z,5.30
2017-12-04T23:55:22.162Z,5.20
2017-12-04T23:57:50.029Z,5.20
